Time;durP1;ratioP1;P1;durP2;ratioP2;P2;SDS_P1;SDS_P2;PMS_P1;PMS_P2;Temp;Humidity;BMP_temperature;BMP_pressure;BME280_temperature;BME280_humidity;BME280_pressure;Samples;Min_cycle;Max_cycle;Signal;HPM_P1;HPM_P2
2023/12/17 00:00:18;;;;;;;;;;;;;;;17.17;61.57;103239.47;7387093;19;1876;-34
2023/12/17 00:02:46;;;;;;;;;;;;;;;16.99;62.36;103236.66;7388494;19;1402;-35
2023/12/17 00:05:15;;;;;;;;;;;;;;;17.15;62.11;103236.00;7390225;19;1614;-34
2023/12/17 00:07:46;;;;;;;;;;;;;;;17.53;61.02;103237.09;7393487;19;1268;-34
2023/12/17 00:10:14;;;;;;;;;;;;;;;17.92;60.05;103251.50;7391559;19;1415;-34
2023/12/17 00:12:42;;;;;;;;;;;;;;;18.02;59.75;103232.28;7394305;19;1556;-34
2023/12/17 00:15:11;;;;;;;;;;;;;;;18.05;59.55;103236.66;7381747;19;1820;-34
2023/12/17 00:17:39;;;;;;;;;;;;;;;18.01;59.65;103237.72;7395258;19;1229;-34
2023/12/17 00:20:08;;;;;;;;;;;;;;;18.07;59.46;103253.50;7394003;19;1855;-34
2023/12/17 00:22:36;;;;;;;;;;;;;;;18.11;59.46;103243.53;7395561;19;1071;-35
2023/12/17 00:25:08;;;;;;;;;;;;;;;17.94;59.86;103231.75;7391573;19;1844;-35
2023/12/17 00:27:37;;;;;;;;;;;;;;;17.59;60.04;103257.38;7394403;19;1664;-34
2023/12/17 00:30:05;;;;;;;;;;;;;;;17.36;61.15;103261.00;7393919;19;1774;-34
2023/12/17 00:32:34;;;;;;;;;;;;;;;17.23;61.48;103255.28;7395141;19;952;-34
2023/12/17 00:35:02;;;;;;;;;;;;;;;17.16;61.81;103248.47;7394476;19;1782;-35
2023/12/17 00:37:30;;;;;;;;;;;;;;;17.03;61.92;103245.41;7394153;19;1834;-35
2023/12/17 00:39:58;;;;;;;;;;;;;;;17.23;61.73;103261.50;7390974;19;1851;-36
2023/12/17 00:42:29;;;;;;;;;;;;;;;17.73;60.22;103257.63;7393561;19;1455;-34
2023/12/17 00:44:58;;;;;;;;;;;;;;;18.03;59.45;103249.22;7394338;19;1426;-34
2023/12/17 00:47:26;;;;;;;;;;;;;;;17.80;60.02;103253.75;7394565;19;1327;-34
2023/12/17 00:49:54;;;;;;;;;;;;;;;17.45;60.59;103248.13;7393780;19;1324;-35
2023/12/17 00:52:23;;;;;;;;;;;;;;;17.27;61.25;103254.25;7393027;19;2142;-34
2023/12/17 00:54:51;;;;;;;;;;;;;;;17.13;61.58;103259.25;7393280;19;1569;-34
2023/12/17 00:57:20;;;;;;;;;;;;;;;17.04;64.22;103245.34;7393795;19;1465;-38
2023/12/17 00:59:51;;;;;;;;;;;;;;;17.63;64.96;103248.28;7393315;19;1844;-35
2023/12/17 01:02:19;;;;;;;;;;;;;;;18.28;65.47;103244.50;7391090;19;1497;-34
2023/12/17 01:04:47;;;;;;;;;;;;;;;18.23;65.33;103269.75;7393376;19;1647;-34
2023/12/17 01:07:16;;;;;;;;;;;;;;;17.96;66.43;103256.66;7392210;19;1496;-34
2023/12/17 01:09:44;;;;;;;;;;;;;;;17.58;67.60;103266.31;7391524;19;1371;-34
2023/12/17 01:12:12;;;;;;;;;;;;;;;17.34;67.92;103260.19;7392709;19;1103;-34
2023/12/17 01:14:41;;;;;;;;;;;;;;;17.21;68.02;103254.47;7378291;19;1840;-35
2023/12/17 01:17:12;;;;;;;;;;;;;;;17.00;68.32;103254.41;7393769;19;1304;-34
2023/12/17 01:19:40;;;;;;;;;;;;;;;17.27;68.23;103257.78;7392083;19;1853;-34
2023/12/17 01:22:08;;;;;;;;;;;;;;;17.68;67.58;103252.47;7394125;19;1051;-34
2023/12/17 01:24:37;;;;;;;;;;;;;;;18.01;66.94;103256.47;7390977;19;1483;-34
2023/12/17 01:27:06;;;;;;;;;;;;;;;18.08;66.80;103265.94;7392110;19;1785;-34
2023/12/17 01:29:35;;;;;;;;;;;;;;;18.13;66.94;103269.31;7390191;19;1457;-34
2023/12/17 01:32:03;;;;;;;;;;;;;;;18.15;66.94;103262.06;7392996;19;1415;-34
2023/12/17 01:34:34;;;;;;;;;;;;;;;18.15;66.77;103275.47;7391156;19;1611;-34
2023/12/17 01:37:02;;;;;;;;;;;;;;;18.15;66.76;103262.06;7390121;19;1395;-34
2023/12/17 01:39:30;;;;;;;;;;;;;;;18.21;66.82;103268.97;7391357;19;1864;-35
2023/12/17 01:41:59;;;;;;;;;;;;;;;18.21;66.38;103275.19;7393704;19;982;-34
2023/12/17 01:44:28;;;;;;;;;;;;;;;18.23;66.31;103280.47;7389773;19;1935;-34
2023/12/17 01:46:56;;;;;;;;;;;;;;;18.27;66.05;103268.69;7391804;19;1541;-34
2023/12/17 01:49:24;;;;;;;;;;;;;;;18.29;65.99;103273.03;7391046;19;1741;-34
2023/12/17 01:51:55;;;;;;;;;;;;;;;18.09;66.48;103281.94;7390378;19;1878;-34
2023/12/17 01:54:24;;;;;;;;;;;;;;;17.71;67.18;103267.53;7392572;19;1523;-34
2023/12/17 01:56:52;;;;;;;;;;;;;;;17.41;67.64;103281.28;7387462;19;1416;-34
2023/12/17 01:59:21;;;;;;;;;;;;;;;17.32;67.88;103276.31;7388585;19;1765;-34
2023/12/17 02:01:49;;;;;;;;;;;;;;;17.22;67.86;103269.59;7387388;19;1874;-34
2023/12/17 02:04:18;;;;;;;;;;;;;;;17.04;68.14;103272.06;7389756;19;1391;-34
2023/12/17 02:06:47;;;;;;;;;;;;;;;16.34;68.43;103163.50;7389655;19;1703;-35
2023/12/17 02:09:18;;;;;;;;;;;;;;;16.84;68.31;103255.97;7389357;19;1232;-34
2023/12/17 02:11:46;;;;;;;;;;;;;;;16.74;68.55;103263.44;7390905;19;1377;-34
2023/12/17 02:14:14;;;;;;;;;;;;;;;17.24;67.58;103259.69;7377236;19;1320;-34
2023/12/17 02:16:43;;;;;;;;;;;;;;;17.88;65.98;103253.44;7391124;19;1016;-34
2023/12/17 02:19:11;;;;;;;;;;;;;;;17.97;65.46;103255.72;7389912;19;1765;-34
2023/12/17 02:21:40;;;;;;;;;;;;;;;17.61;65.98;103244.78;7389955;19;1933;-34
2023/12/17 02:24:12;;;;;;;;;;;;;;;17.36;66.70;103256.50;7390260;19;1788;-34
2023/12/17 02:26:42;;;;;;;;;;;;;;;17.16;67.08;103241.28;7389337;19;1394;-34
2023/12/17 02:29:11;;;;;;;;;;;;;;;16.98;67.30;103256.28;7390082;19;1682;-34
2023/12/17 02:31:39;;;;;;;;;;;;;;;17.18;66.67;103255.47;7390552;19;1217;-34
2023/12/17 02:34:07;;;;;;;;;;;;;;;17.85;65.20;103249.09;7390444;19;971;-36
2023/12/17 02:36:37;;;;;;;;;;;;;;;18.60;63.52;103242.13;7390029;19;1467;-34
2023/12/17 02:39:05;;;;;;;;;;;;;;;19.01;62.09;103247.34;7389827;19;1490;-34
2023/12/17 02:41:36;;;;;;;;;;;;;;;19.42;61.10;103252.47;7388758;19;1829;-34
2023/12/17 02:44:04;;;;;;;;;;;;;;;19.52;60.61;103242.13;7391059;19;1317;-34
2023/12/17 02:46:32;;;;;;;;;;;;;;;19.55;60.52;103241.97;7390647;19;1506;-34
2023/12/17 02:49:01;;;;;;;;;;;;;;;19.51;60.27;103242.19;7390270;19;1785;-34
2023/12/17 02:51:31;;;;;;;;;;;;;;;19.57;60.32;103234.69;7388923;19;1427;-34
2023/12/17 02:53:59;;;;;;;;;;;;;;;19.64;60.35;103243.31;7389594;19;1423;-34
2023/12/17 02:56:27;;;;;;;;;;;;;;;19.64;60.19;103237.94;7389731;19;1118;-35
2023/12/17 02:58:58;;;;;;;;;;;;;;;19.69;59.86;103238.56;7391331;19;1511;-34
2023/12/17 03:01:26;;;;;;;;;;;;;;;19.74;59.94;103241.91;7389062;19;1837;-34
2023/12/17 03:03:55;;;;;;;;;;;;;;;19.78;59.89;103238.13;7390370;19;1413;-34
2023/12/17 03:06:23;;;;;;;;;;;;;;;19.81;59.67;103234.41;7390511;19;1508;-35
2023/12/17 03:08:51;;;;;;;;;;;;;;;19.83;59.53;103237.88;7390962;19;1102;-34
2023/12/17 03:11:20;;;;;;;;;;;;;;;19.89;59.00;103239.38;7390289;19;1436;-35
2023/12/17 03:13:48;;;;;;;;;;;;;;;19.85;59.25;103234.16;7375562;19;1508;-35
2023/12/17 03:16:19;;;;;;;;;;;;;;;19.90;59.04;103246.50;7390301;19;1582;-34
2023/12/17 03:18:47;;;;;;;;;;;;;;;19.94;59.13;103248.06;7390910;19;1674;-34
2023/12/17 03:21:15;;;;;;;;;;;;;;;19.99;58.55;103230.72;7389209;19;1841;-34
2023/12/17 03:23:44;;;;;;;;;;;;;;;20.00;58.70;103237.84;7390833;19;1615;-34
2023/12/17 03:26:12;;;;;;;;;;;;;;;19.98;58.61;103241.56;7394307;19;1106;-35
2023/12/17 03:28:40;;;;;;;;;;;;;;;20.07;58.50;103227.63;7395752;19;1150;-34
2023/12/17 03:31:09;;;;;;;;;;;;;;;20.05;58.39;103232.22;7396963;19;1913;-35
2023/12/17 03:33:40;;;;;;;;;;;;;;;20.16;58.25;103227.16;7397127;19;1849;-35
2023/12/17 03:36:09;;;;;;;;;;;;;;;20.04;58.46;103223.31;7397456;19;1448;-35
2023/12/17 03:38:37;;;;;;;;;;;;;;;20.08;58.18;103225.84;7397394;19;1816;-35
2023/12/17 03:41:06;;;;;;;;;;;;;;;20.07;58.34;103235.69;7396089;19;1846;-35
2023/12/17 03:43:34;;;;;;;;;;;;;;;20.08;58.10;103213.28;7396122;19;1329;-34
2023/12/17 03:46:02;;;;;;;;;;;;;;;20.07;58.12;103227.63;7397066;19;1514;-34
2023/12/17 03:48:30;;;;;;;;;;;;;;;20.10;58.13;103223.94;7395336;19;1210;-35
2023/12/17 03:51:01;;;;;;;;;;;;;;;20.03;58.38;103231.44;7397138;19;1831;-34
2023/12/17 03:53:30;;;;;;;;;;;;;;;19.97;58.23;103229.09;7397271;19;1599;-34
2023/12/17 03:55:58;;;;;;;;;;;;;;;19.93;58.42;103228.38;7398846;19;1051;-34
2023/12/17 03:58:27;;;;;;;;;;;;;;;19.51;59.20;103242.19;7398250;19;1456;-34
2023/12/17 04:00:56;;;;;;;;;;;;;;;18.87;60.48;103239.09;7397864;19;1854;-34
2023/12/17 04:03:24;;;;;;;;;;;;;;;18.41;61.70;103242.13;7398384;19;1908;-34
2023/12/17 04:05:52;;;;;;;;;;;;;;;18.08;62.23;103250.78;7398449;19;1741;-34
2023/12/17 04:08:23;;;;;;;;;;;;;;;17.88;63.06;103251.63;7396435;19;1447;-34
2023/12/17 04:10:51;;;;;;;;;;;;;;;17.98;63.12;103233.34;7396664;19;1638;-34
2023/12/17 04:13:20;;;;;;;;;;;;;;;18.42;61.95;103248.34;7395390;19;1737;-35
2023/12/17 04:15:48;;;;;;;;;;;;;;;19.10;60.29;103239.78;7380431;19;1197;-34
2023/12/17 04:18:16;;;;;;;;;;;;;;;19.24;59.74;103221.22;7394850;19;1733;-34
2023/12/17 04:20:45;;;;;;;;;;;;;;;19.12;58.85;103173.50;7395728;19;1846;-34
2023/12/17 04:23:13;;;;;;;;;;;;;;;19.35;59.05;103239.44;7396189;19;1114;-34
2023/12/17 04:25:44;;;;;;;;;;;;;;;19.29;59.26;103229.88;7394770;19;1590;-35
2023/12/17 04:28:12;;;;;;;;;;;;;;;19.22;59.22;103226.63;7394908;19;1786;-34
2023/12/17 04:30:41;;;;;;;;;;;;;;;19.20;59.17;103246.41;7394887;19;1577;-35
2023/12/17 04:33:09;;;;;;;;;;;;;;;19.12;59.30;103243.25;7394892;19;1785;-34
2023/12/17 04:35:37;;;;;;;;;;;;;;;19.10;59.28;103243.34;7392666;19;1839;-34
2023/12/17 04:38:06;;;;;;;;;;;;;;;19.16;59.32;103250.19;7394221;19;1430;-34
2023/12/17 04:40:34;;;;;;;;;;;;;;;19.11;59.26;103242.38;7393110;19;1854;-34
2023/12/17 04:43:05;;;;;;;;;;;;;;;19.24;59.03;103248.03;7392630;19;1781;-34
2023/12/17 04:45:33;;;;;;;;;;;;;;;19.23;58.90;103246.28;7395006;19;1675;-34
2023/12/17 04:48:01;;;;;;;;;;;;;;;19.25;58.73;103239.03;7394501;19;1746;-34
2023/12/17 04:50:31;;;;;;;;;;;;;;;19.28;58.60;103233.53;7394031;19;1825;-35
2023/12/17 04:53:00;;;;;;;;;;;;;;;19.33;58.82;103252.06;7393952;19;1407;-34
2023/12/17 04:55:28;;;;;;;;;;;;;;;19.29;58.74;103232.56;7395343;19;1317;-34
2023/12/17 04:57:56;;;;;;;;;;;;;;;19.20;58.96;103233.00;7394579;19;1938;-34
2023/12/17 05:00:27;;;;;;;;;;;;;;;19.24;58.65;103232.78;7395392;19;1747;-34
2023/12/17 05:02:55;;;;;;;;;;;;;;;19.25;58.57;103237.19;7392453;19;1862;-35
2023/12/17 05:05:25;;;;;;;;;;;;;;;19.14;58.92;103227.94;7394606;19;1699;-34
2023/12/17 05:07:54;;;;;;;;;;;;;;;19.15;58.92;103238.59;7394075;19;1150;-34
2023/12/17 05:10:22;;;;;;;;;;;;;;;19.07;59.07;103233.63;7393232;19;1404;-34
2023/12/17 05:12:53;;;;;;;;;;;;;;;19.13;58.98;103256.59;7392483;19;1833;-34
2023/12/17 05:15:21;;;;;;;;;;;;;;;19.20;58.52;103241.94;7378030;19;1305;-34
2023/12/17 05:17:52;;;;;;;;;;;;;;;19.19;58.76;103239.34;7392605;19;1547;-34
2023/12/17 05:20:20;;;;;;;;;;;;;;;19.12;58.90;103240.56;7394425;19;1707;-35
2023/12/17 05:22:49;;;;;;;;;;;;;;;19.19;58.62;103231.28;7392699;19;1862;-34
2023/12/17 05:25:17;;;;;;;;;;;;;;;19.13;58.66;103240.50;7392710;19;1577;-34
2023/12/17 05:27:45;;;;;;;;;;;;;;;19.10;58.61;103250.50;7392835;19;1424;-34
2023/12/17 05:30:14;;;;;;;;;;;;;;;19.04;58.69;103244.50;7392225;19;1398;-35
2023/12/17 05:32:42;;;;;;;;;;;;;;;19.02;58.69;103243.72;7392042;19;1485;-34
2023/12/17 05:35:13;;;;;;;;;;;;;;;19.13;58.72;103250.38;7392326;19;1754;-34
2023/12/17 05:37:42;;;;;;;;;;;;;;;19.00;58.68;103267.06;7392797;19;1855;-34
2023/12/17 05:40:10;;;;;;;;;;;;;;;19.04;58.45;103249.88;7391124;19;1726;-34
2023/12/17 05:42:39;;;;;;;;;;;;;;;19.01;58.90;103257.19;7390703;19;1847;-34
2023/12/17 05:45:07;;;;;;;;;;;;;;;19.06;58.78;103264.09;7392878;19;1397;-34
2023/12/17 05:47:33;;;;;;;;;;;;;;;19.00;58.79;103272.44;7392850;19;1701;-34
2023/12/17 05:50:01;;;;;;;;;;;;;;;18.99;58.88;103270.69;7392910;19;1044;-35
2023/12/17 05:52:32;;;;;;;;;;;;;;;19.06;58.45;103274.81;7393135;19;1589;-35
2023/12/17 05:55:00;;;;;;;;;;;;;;;19.07;58.65;103281.03;7392218;19;1486;-34
2023/12/17 05:57:29;;;;;;;;;;;;;;;19.08;58.59;103280.09;7392256;19;2387;-34
2023/12/17 05:59:57;;;;;;;;;;;;;;;19.02;58.46;103270.53;7392392;19;1107;-34
2023/12/17 06:02:25;;;;;;;;;;;;;;;19.07;58.55;103284.56;7391937;19;1846;-34
2023/12/17 06:04:54;;;;;;;;;;;;;;;19.02;58.64;103283.94;7391494;19;1190;-34
2023/12/17 06:07:22;;;;;;;;;;;;;;;18.96;58.66;103268.16;7390990;19;1729;-34
2023/12/17 06:09:53;;;;;;;;;;;;;;;19.00;58.38;103268.84;7390251;19;1328;-34
2023/12/17 06:12:21;;;;;;;;;;;;;;;18.98;58.49;103279.69;7392129;19;1387;-34
2023/12/17 06:14:50;;;;;;;;;;;;;;;18.98;58.50;103277.00;7376180;19;1580;-34
2023/12/17 06:17:18;;;;;;;;;;;;;;;18.95;58.71;103268.22;7391925;19;1729;-34
2023/12/17 06:19:46;;;;;;;;;;;;;;;18.98;58.50;103273.44;7391150;19;1363;-34
2023/12/17 06:22:16;;;;;;;;;;;;;;;19.02;58.34;103262.50;7391236;19;1844;-34
2023/12/17 06:24:44;;;;;;;;;;;;;;;19.05;58.31;103291.81;7389101;19;1971;-34
2023/12/17 06:27:18;;;;;;;;;;;;;;;18.97;59.10;103294.00;7390955;19;1519;-34
2023/12/17 06:29:48;;;;;;;;;;;;;;;18.89;59.07;103285.47;7388815;19;1702;-35
2023/12/17 06:32:17;;;;;;;;;;;;;;;18.86;59.13;103291.84;7390972;19;1543;-34
2023/12/17 06:34:45;;;;;;;;;;;;;;;18.84;59.34;103291.06;7390856;19;1214;-34
2023/12/17 06:37:13;;;;;;;;;;;;;;;18.84;59.11;103290.16;7389516;19;1193;-34
2023/12/17 06:39:42;;;;;;;;;;;;;;;18.86;59.13;103302.59;7390376;19;1175;-34
2023/12/17 06:42:11;;;;;;;;;;;;;;;18.89;59.14;103301.56;7390342;19;1854;-34
2023/12/17 06:44:42;;;;;;;;;;;;;;;18.80;59.23;103297.50;7390097;19;1228;-34
2023/12/17 06:47:10;;;;;;;;;;;;;;;18.84;59.19;103300.91;7389415;19;1542;-34
2023/12/17 06:49:39;;;;;;;;;;;;;;;18.84;59.19;103303.56;7390591;19;1499;-35
2023/12/17 06:52:08;;;;;;;;;;;;;;;18.82;59.13;103313.50;7389123;19;1429;-35
2023/12/17 06:54:36;;;;;;;;;;;;;;;18.82;59.19;103308.16;7390659;19;1782;-34
2023/12/17 06:57:05;;;;;;;;;;;;;;;18.82;59.14;103316.19;7390379;19;1570;-34
2023/12/17 06:59:33;;;;;;;;;;;;;;;18.83;59.12;103312.56;7389369;19;1475;-34
2023/12/17 07:02:04;;;;;;;;;;;;;;;18.84;59.00;103314.31;7393295;19;1851;-34
2023/12/17 07:04:32;;;;;;;;;;;;;;;18.82;59.12;103321.53;7397867;19;1853;-34
2023/12/17 07:07:00;;;;;;;;;;;;;;;18.82;58.85;103297.41;7397759;19;1610;-34
2023/12/17 07:09:29;;;;;;;;;;;;;;;18.48;59.75;103309.69;7397311;19;1469;-35
2023/12/17 07:11:57;;;;;;;;;;;;;;;18.10;60.73;103312.28;7397566;19;1484;-34
2023/12/17 07:14:25;;;;;;;;;;;;;;;17.80;61.35;103315.31;7398188;19;1261;-34
2023/12/17 07:16:54;;;;;;;;;;;;;;;17.61;61.60;103325.06;7384150;19;1129;-34
2023/12/17 07:19:25;;;;;;;;;;;;;;;17.66;61.97;103309.66;7396952;19;1585;-34
2023/12/17 07:21:53;;;;;;;;;;;;;;;18.02;61.03;103299.22;7396396;19;1866;-34
2023/12/17 07:24:22;;;;;;;;;;;;;;;18.76;59.40;103300.34;7395742;19;1235;-34
2023/12/17 07:26:51;;;;;;;;;;;;;;;19.11;58.28;103300.53;7396676;19;1459;-35
2023/12/17 07:29:19;;;;;;;;;;;;;;;19.30;57.94;103311.22;7396102;19;1547;-34
2023/12/17 07:31:48;;;;;;;;;;;;;;;19.30;57.84;103292.44;7395199;19;1225;-34
2023/12/17 07:34:16;;;;;;;;;;;;;;;19.18;57.97;103297.47;7396585;19;1554;-35
2023/12/17 07:36:47;;;;;;;;;;;;;;;19.04;58.11;103279.38;7397031;19;1141;-34
2023/12/17 07:39:15;;;;;;;;;;;;;;;18.92;58.49;103288.03;7396003;19;1983;-34
2023/12/17 07:41:43;;;;;;;;;;;;;;;18.95;58.48;103295.03;7396306;19;1862;-34
2023/12/17 07:44:12;;;;;;;;;;;;;;;18.98;58.70;103274.31;7395008;19;1518;-34
2023/12/17 07:46:40;;;;;;;;;;;;;;;18.99;58.63;103276.03;7396366;19;1821;-34
2023/12/17 07:49:09;;;;;;;;;;;;;;;18.98;58.42;103282.38;7395610;19;1505;-34
2023/12/17 07:51:38;;;;;;;;;;;;;;;18.94;58.40;103287.91;7395177;19;1841;-34
2023/12/17 07:54:09;;;;;;;;;;;;;;;18.92;58.29;103279.09;7394545;19;1463;-34
2023/12/17 07:56:37;;;;;;;;;;;;;;;18.83;58.67;103267.88;7396647;19;1856;-34
2023/12/17 07:59:05;;;;;;;;;;;;;;;18.86;59.47;103274.88;7392832;19;1570;-37
2023/12/17 08:01:34;;;;;;;;;;;;;;;18.96;58.99;103281.56;7394376;19;1210;-35
2023/12/17 08:04:03;;;;;;;;;;;;;;;18.99;59.17;103281.41;7392871;19;1433;-35
2023/12/17 08:06:32;;;;;;;;;;;;;;;19.02;59.18;103285.75;7387115;19;1477;-35
2023/12/17 08:09:00;;;;;;;;;;;;;;;19.03;59.09;103280.31;7395271;19;1547;-35
2023/12/17 08:11:31;;;;;;;;;;;;;;;18.96;59.29;103292.28;7393676;19;1072;-35
2023/12/17 08:14:00;;;;;;;;;;;;;;;18.96;59.08;103297.66;7386472;19;1778;-35
2023/12/17 08:16:28;;;;;;;;;;;;;;;19.00;59.09;103326.06;7375572;19;1692;-35
2023/12/17 08:18:56;;;;;;;;;;;;;;;18.86;59.54;103280.25;7394105;19;1888;-34
2023/12/17 08:21:25;;;;;;;;;;;;;;;18.93;59.06;103276.34;7392610;19;1857;-35
2023/12/17 08:23:53;;;;;;;;;;;;;;;18.95;59.10;103268.22;7390775;19;1865;-35
2023/12/17 08:26:22;;;;;;;;;;;;;;;18.94;59.17;103282.56;7393207;19;1461;-34
2023/12/17 08:28:52;;;;;;;;;;;;;;;18.85;59.33;103273.16;7392649;19;1115;-35
2023/12/17 08:31:21;;;;;;;;;;;;;;;18.83;59.26;103269.69;7394908;19;1023;-35
2023/12/17 08:33:52;;;;;;;;;;;;;;;18.82;59.25;103276.88;7390309;19;1947;-34
2023/12/17 08:36:21;;;;;;;;;;;;;;;18.73;59.74;103279.06;7391571;19;1466;-35
2023/12/17 08:38:49;;;;;;;;;;;;;;;18.73;59.73;103279.06;7391191;19;1552;-35
2023/12/17 08:41:17;;;;;;;;;;;;;;;18.65;60.04;103272.25;7391096;19;1528;-37
2023/12/17 08:43:46;;;;;;;;;;;;;;;18.76;59.92;103289.63;7385287;19;1865;-35
2023/12/17 08:46:17;;;;;;;;;;;;;;;18.88;59.67;103256.94;7386429;19;1311;-34
2023/12/17 08:48:45;;;;;;;;;;;;;;;18.86;59.78;103264.16;7392176;19;1424;-34
2023/12/17 08:51:14;;;;;;;;;;;;;;;18.90;59.85;103260.41;7393351;19;1403;-35
2023/12/17 09:05:58;;;;;;;;;;;;;;;17.41;63.27;103254.53;6869407;19;10002046;-56
2023/12/17 09:08:26;;;;;;;;;;;;;;;17.42;63.67;103237.53;7412849;19;1458;-62
2023/12/17 09:10:54;;;;;;;;;;;;;;;17.65;62.84;103231.22;7419401;19;2412;-58
2023/12/17 09:13:23;;;;;;;;;;;;;;;18.43;61.12;103239.38;7416348;19;1646;-58
2023/12/17 09:15:51;;;;;;;;;;;;;;;18.82;59.56;103219.69;7422844;19;1204;-58
2023/12/17 09:18:20;;;;;;;;;;;;;;;19.04;59.16;103220.38;7424231;19;1534;-60
2023/12/17 09:20:48;;;;;;;;;;;;;;;19.00;59.42;103229.53;7423630;19;1533;-59
2023/12/17 09:23:19;;;;;;;;;;;;;;;18.54;60.46;103234.34;7424333;19;1776;-60
2023/12/17 09:25:47;;;;;;;;;;;;;;;18.19;61.45;103234.22;7421403;19;1858;-60
2023/12/17 09:28:15;;;;;;;;;;;;;;;18.17;59.93;103221.84;7424767;19;1366;-59
2023/12/17 09:30:44;;;;;;;;;;;;;;;18.65;57.93;103207.94;7424015;19;1144;-59
2023/12/17 09:33:12;;;;;;;;;;;;;;;19.18;56.87;103202.72;7424538;19;1867;-60
2023/12/17 09:35:40;;;;;;;;;;;;;;;18.87;57.33;103202.44;7420333;19;1675;-63
2023/12/17 09:38:10;;;;;;;;;;;;;;;18.40;58.68;103191.28;7423740;19;1533;-59
2023/12/17 09:40:41;;;;;;;;;;;;;;;18.24;58.98;103192.03;7422743;19;1450;-60
2023/12/17 09:43:11;;;;;;;;;;;;;;;18.69;58.55;103185.41;7421586;19;1449;-60
2023/12/17 09:45:40;;;;;;;;;;;;;;;19.02;58.04;103183.84;7421768;19;1858;-63
2023/12/17 09:48:08;;;;;;;;;;;;;;;18.96;57.33;103174.31;7421751;19;1437;-60
2023/12/17 09:50:36;;;;;;;;;;;;;;;18.57;57.78;103129.72;7422068;19;1495;-61
2023/12/17 09:53:05;;;;;;;;;;;;;;;18.51;59.31;103172.91;7421705;19;1406;-61
2023/12/17 09:55:33;;;;;;;;;;;;;;;18.53;59.33;103168.34;7423378;19;1301;-61
2023/12/17 09:58:06;;;;;;;;;;;;;;;18.89;58.65;103172.88;7417851;19;1373;-60
2023/12/17 10:00:35;;;;;;;;;;;;;;;19.23;57.86;103153.25;7398497;19;1989;-60
2023/12/17 10:03:04;;;;;;;;;;;;;;;19.32;57.48;103148.34;7421671;19;1551;-60
2023/12/17 10:05:33;;;;;;;;;;;;;;;19.42;57.29;103149.63;7400837;19;1877;-60
2023/12/17 10:08:01;;;;;;;;;;;;;;;19.40;57.35;103146.16;7421174;19;1482;-61
2023/12/17 10:10:30;;;;;;;;;;;;;;;19.38;57.61;103151.59;7420384;19;1338;-61
2023/12/17 10:12:58;;;;;;;;;;;;;;;19.20;57.24;103093.53;7427276;19;1603;-60
2023/12/17 10:15:29;;;;;;;;;;;;;;;19.48;57.19;103134.06;7416118;19;1465;-61
2023/12/17 10:17:57;;;;;;;;;;;;;;;19.58;57.18;103155.06;7394359;19;1497;-60
2023/12/17 10:20:26;;;;;;;;;;;;;;;19.61;57.13;103136.09;7392735;19;1465;-61
2023/12/17 10:23:03;;;;;;;;;;;;;;;19.59;56.74;103140.69;7394049;19;1470;-60
2023/12/17 10:25:32;;;;;;;;;;;;;;;19.56;56.92;103141.72;7393096;19;1845;-59
2023/12/17 10:28:01;;;;;;;;;;;;;;;19.66;56.75;103131.34;7394567;19;1192;-61
2023/12/17 10:30:32;;;;;;;;;;;;;;;19.34;57.75;103136.63;7392622;19;1481;-63
2023/12/17 10:33:02;;;;;;;;;;;;;;;18.84;58.96;103137.38;7393613;19;1517;-62
2023/12/17 10:35:31;;;;;;;;;;;;;;;18.57;59.35;103135.09;7390960;19;1364;-62
2023/12/17 10:38:01;;;;;;;;;;;;;;;18.84;58.96;103140.94;7391259;19;1497;-64
2023/12/17 10:40:30;;;;;;;;;;;;;;;19.10;58.42;103137.88;7392195;19;1461;-64
2023/12/17 10:42:59;;;;;;;;;;;;;;;19.08;58.09;103130.78;7393871;19;1387;-64
2023/12/17 10:45:28;;;;;;;;;;;;;;;19.26;57.73;103144.19;7391272;19;1856;-64
2023/12/17 10:47:59;;;;;;;;;;;;;;;19.28;57.42;103120.84;7391504;19;1562;-64
2023/12/17 10:50:28;;;;;;;;;;;;;;;19.32;57.17;103135.81;7393566;19;1560;-63
2023/12/17 10:52:56;;;;;;;;;;;;;;;19.32;57.44;103135.81;7391685;19;1337;-63
2023/12/17 10:55:25;;;;;;;;;;;;;;;19.27;57.77;103137.88;7393510;19;1291;-65
2023/12/17 10:57:55;;;;;;;;;;;;;;;18.99;57.80;103123.19;7391749;19;1826;-63
2023/12/17 11:00:26;;;;;;;;;;;;;;;19.07;57.51;103122.81;7331432;19;12712;-64
2023/12/17 11:02:57;;;;;;;;;;;;;;;19.09;57.39;103110.19;7387560;19;1487;-64
2023/12/17 11:05:28;;;;;;;;;;;;;;;19.10;57.33;103111.03;7387731;19;1852;-64
2023/12/17 11:07:56;;;;;;;;;;;;;;;19.07;57.46;103112.94;7391158;19;1248;-64
2023/12/17 11:10:25;;;;;;;;;;;;;;;19.12;57.49;103118.09;7392649;19;1164;-65
2023/12/17 11:12:53;;;;;;;;;;;;;;;19.16;57.18;103102.69;7392213;19;2101;-64
2023/12/17 11:15:23;;;;;;;;;;;;;;;19.27;57.15;103116.41;7392179;19;1204;-64
2023/12/17 11:17:54;;;;;;;;;;;;;;;19.31;57.18;103109.94;7392069;19;1552;-64
2023/12/17 11:20:22;;;;;;;;;;;;;;;19.24;57.08;103095.13;7391722;19;1525;-64
2023/12/17 11:22:53;;;;;;;;;;;;;;;19.08;57.65;103090.56;7392688;19;1018;-64
2023/12/17 11:25:21;;;;;;;;;;;;;;;19.08;57.52;103093.22;7394972;19;1857;-64
2023/12/17 11:27:50;;;;;;;;;;;;;;;19.13;57.53;103078.72;7389824;19;1771;-63
2023/12/17 11:30:30;;;;;;;;;;;;;;;19.15;57.54;103071.47;7389347;19;1833;-64
2023/12/17 11:32:59;;;;;;;;;;;;;;;19.05;57.76;103061.19;7390989;19;1791;-64
2023/12/17 11:35:29;;;;;;;;;;;;;;;19.02;57.72;103065.84;7390596;19;1184;-64
2023/12/17 11:38:00;;;;;;;;;;;;;;;19.05;57.61;103055.84;7390562;19;1806;-64
2023/12/17 11:40:28;;;;;;;;;;;;;;;18.78;57.37;102999.13;7389815;19;1252;-64
2023/12/17 11:42:58;;;;;;;;;;;;;;;19.07;57.83;103064.66;7391875;19;1727;-63
2023/12/17 11:45:36;;;;;;;;;;;;;;;19.08;57.66;103060.19;7388591;19;1853;-65
2023/12/17 11:48:11;;;;;;;;;;;;;;;19.08;57.66;103063.72;7391175;19;1123;-64
2023/12/17 11:50:43;;;;;;;;;;;;;;;19.15;57.58;103063.41;7390664;19;1520;-64
2023/12/17 11:53:15;;;;;;;;;;;;;;;19.15;57.61;103055.38;7389439;19;1203;-64
2023/12/17 11:55:44;;;;;;;;;;;;;;;19.20;57.41;103074.75;7391127;19;1276;-63
2023/12/17 11:58:15;;;;;;;;;;;;;;;19.06;57.85;103068.31;7389507;19;1603;-64
2023/12/17 12:00:43;;;;;;;;;;;;;;;19.08;57.75;103071.78;7391262;19;1127;-63
2023/12/17 12:03:12;;;;;;;;;;;;;;;19.08;57.66;103047.66;7388459;19;1428;-64
2023/12/17 12:05:40;;;;;;;;;;;;;;;19.03;57.83;103055.06;7370712;19;1882;-64
2023/12/17 12:08:08;;;;;;;;;;;;;;;18.94;57.81;103036.78;7386647;19;1447;-64
2023/12/17 12:10:39;;;;;;;;;;;;;;;18.89;58.04;103049.53;7386061;19;1689;-63
2023/12/17 12:13:09;;;;;;;;;;;;;;;18.95;57.90;103043.84;7387479;19;1494;-64
2023/12/17 12:15:38;;;;;;;;;;;;;;;18.93;57.54;103056.47;7386093;19;1395;-63
2023/12/17 12:18:06;;;;;;;;;;;;;;;19.08;57.28;103034.22;7389547;19;1720;-63
2023/12/17 12:20:37;;;;;;;;;;;;;;;18.50;58.03;102978.22;7389530;19;1218;-62
2023/12/17 12:23:11;;;;;;;;;;;;;;;18.50;59.09;103042.53;7386765;19;1411;-63
2023/12/17 12:25:42;;;;;;;;;;;;;;;18.32;59.21;103043.44;7385217;19;1857;-62
2023/12/17 12:28:17;;;;;;;;;;;;;;;18.10;59.73;103028.44;7389237;19;949;-63
2023/12/17 12:30:46;;;;;;;;;;;;;;;18.06;60.13;103040.22;7390648;19;1015;-62
2023/12/17 12:33:15;;;;;;;;;;;;;;;18.43;59.16;103041.13;7379432;19;1893;-63
2023/12/17 12:35:43;;;;;;;;;;;;;;;18.56;58.80;103031.53;7386928;19;1398;-63
2023/12/17 12:38:24;;;;;;;;;;;;;;;18.73;58.30;103011.03;7393546;19;1797;-62
2023/12/17 12:40:56;;;;;;;;;;;;;;;18.87;58.03;103008.53;7392638;19;1179;-62
2023/12/17 12:43:25;;;;;;;;;;;;;;;18.98;57.71;103019.59;7389439;19;1313;-63
2023/12/17 12:45:53;;;;;;;;;;;;;;;18.88;57.97;103032.59;7387392;19;1873;-62
2023/12/17 12:48:23;;;;;;;;;;;;;;;18.72;58.25;103014.66;7389963;19;1258;-62
2023/12/17 12:50:51;;;;;;;;;;;;;;;18.73;58.33;103006.53;7375166;19;1196;-62
2023/12/17 12:53:20;;;;;;;;;;;;;;;18.73;58.50;103011.03;7379983;19;1819;-62
2023/12/17 12:55:49;;;;;;;;;;;;;;;18.63;58.29;103000.78;7385767;19;1538;-62
2023/12/17 12:58:20;;;;;;;;;;;;;;;18.80;58.22;103007.09;7380450;19;1631;-62
2023/12/17 13:00:49;;;;;;;;;;;;;;;18.76;58.40;102992.09;7386227;19;1466;-62
2023/12/17 13:03:18;;;;;;;;;;;;;;;18.80;57.37;103001.75;7385877;19;1454;-63
2023/12/17 13:05:46;;;;;;;;;;;;;;;18.88;57.22;102999.56;7386955;19;1883;-66
2023/12/17 13:08:15;;;;;;;;;;;;;;;18.69;57.59;103005.81;7388722;19;1532;-61